Lady Mary — WCY4834 — position and weather

sailwx.info

Track history (hours):
 
Tides and Currents Weather Stations Pressure Air Temp Water Temp Dewpoint Dewpoint Depression Visibility Wind Speed Wind Dir Waves Ship Positions

Lady Mary

Owner: BLACKMAN, JOHN H, SEATTLE, WA. More information available from US FCC via Universal Licensing System and Coast Guard Vessel Documentation Center.

Last reported at 2018-May-20 23:05 UTC. Time now 2018-May-24 14:04 UTC.
Position N 47°40' W 122°13'.

Length 26 m; draft 2 m.

Type: Passenger vessel. MMSI: 367013060.

Date/timePositionNaut miles runAvg speedWind from/ knotsBaromVisibWave heightAir tempDewpointWater temp
2018-May-20 23:05N 47°40' W 122°13'0 0.0
2018-May-20 22:59N 47°40' W 122°13'0 0.0
2018-May-20 22:29N 47°40' W 122°13'0 1.0
2018-May-20 22:00N 47°40' W 122°13'4 7.0
2018-May-20 21:30N 47°36' W 122°14'2 4.7
2018-May-20 21:00N 47°39' W 122°14'2 4.2
2018-May-20 20:29N 47°40' W 122°13'0 0.0
2018-May-20 04:58N 47°40' W 122°13'1 3.0
2018-May-20 04:30N 47°39' W 122°14'2 4.2
2018-May-20 04:00N 47°39' W 122°17'2 4.1
2018-May-20 03:30N 47°39' W 122°20'0 0.4
2018-May-20 03:00N 47°39' W 122°20'3 5.2
2018-May-20 02:29N 47°39' W 122°16'3 5.4
2018-May-20 02:00N 47°40' W 122°13'0 0.4
2018-May-20 01:29N 47°40' W 122°13'0 0.0
2018-May-20 00:59N 47°40' W 122°13'0 0.0
2018-May-20 00:28N 47°40' W 122°13'0 0.0
2018-May-20 00:00N 47°40' W 122°13'0 0.0
2018-May-19 23:30N 47°40' W 122°13'0 0.0
2018-May-19 23:00N 47°40' W 122°13'0 0.0
2018-May-19 22:29N 47°40' W 122°13'0 0.0
2018-May-19 22:00N 47°40' W 122°13'3 6.2
2018-May-19 21:30N 47°38' W 122°15'1 1.6
2018-May-19 21:00N 47°38' W 122°15'2 4.8
2018-May-19 20:30N 47°40' W 122°13'0 0.0
2018-May-19 19:57N 47°40' W 122°13'0 0.0
2018-May-19 00:26N 47°40' W 122°13'0 0.0
2018-May-19 00:00N 47°40' W 122°13'0 0.0
2018-May-18 23:30N 47°40' W 122°13'2 4.0
2018-May-18 23:00N 47°39' W 122°14'0 0.1
2018-May-18 22:31N 47°39' W 122°14'2 3.9
2018-May-18 22:00N 47°40' W 122°13'0 0.0
2018-May-18 21:30N 47°40' W 122°13'0 0.0
2018-May-18 20:59N 47°40' W 122°13'0 0.0
2018-May-18 20:30N 47°40' W 122°13'0 0.0
2018-May-18 20:00N 47°40' W 122°13'2 4.3
2018-May-18 19:30N 47°39' W 122°15'3 6.3
2018-May-18 19:01N 47°39' W 122°20'1 1.2
2018-May-18 18:30N 47°39' W 122°21'0 0.0
2018-May-18 18:01N 47°39' W 122°21'2 3.8
2018-May-18 17:30N 47°39' W 122°18'4 7.7
2018-May-18 17:00N 47°40' W 122°13'0 0.0
2018-May-18 02:33N 47°40' W 122°13'0 0.0
2018-May-18 02:30N 47°40' W 122°13'3 6.0
2018-May-18 02:00N 47°39' W 122°16'1 2.6
2018-May-18 01:30N 47°39' W 122°15'2 4.7
2018-May-18 01:00N 47°40' W 122°13'0 0.0
2018-May-18 00:30N 47°40' W 122°13'0 0.0
2018-May-17 23:37N 47°40' W 122°13'0 0.0
2018-May-16 05:47N 47°40' W 122°13'0 0.0
2018-May-16 05:30N 47°40' W 122°13'3 6.2
2018-May-16 05:00N 47°39' W 122°16'3 5.8
2018-May-16 04:30N 47°39' W 122°21'0 0.0
2018-May-16 04:00N 47°39' W 122°21'1 1.9
2018-May-16 03:27N 47°38' W 122°20'0 0.0
2018-May-16 03:00N 47°38' W 122°20'1 2.0
2018-May-16 02:30N 47°39' W 122°20'2 3.4
2018-May-16 01:58N 47°39' W 122°18'3 5.9
2018-May-16 01:30N 47°37' W 122°15'2 4.8
2018-May-16 01:00N 47°39' W 122°17'2 4.8
2018-May-16 00:30N 47°38' W 122°20'0 0.1
2018-May-16 00:00N 47°38' W 122°20'0 0.0
2018-May-15 23:30N 47°38' W 122°20'1 2.1
2018-May-15 23:00N 47°39' W 122°20'3 6.5
2018-May-15 22:30N 47°39' W 122°15'2 3.8
2018-May-15 21:58N 47°40' W 122°13'0 0.0
2018-May-15 18:37N 47°40' W 122°13'0 0.0
2018-May-15 17:40N 47°40' W 122°13'0 0.0
2018-May-15 17:28N 47°40' W 122°13'0 0.0
2018-May-15 16:55N 47°40' W 122°13'0 0.0
2018-May-15 16:28N 47°40' W 122°13'0 0.0
2018-May-15 15:58N 47°40' W 122°13'0 0.0
2018-May-15 15:13N 47°40' W 122°13'0 0.0
2018-May-15 14:58N 47°40' W 122°13'0 0.0
2018-May-15 14:28N 47°40' W 122°13'0 0.0
2018-May-15 14:01N 47°40' W 122°13'0 0.0
2018-May-15 13:28N 47°40' W 122°13'0 0.0
2018-May-15 12:58N 47°40' W 122°13'0 0.0
2018-May-15 11:52N 47°40' W 122°13'0 0.0
2018-May-15 11:28N 47°40' W 122°13'0 0.0
2018-May-15 10:58N 47°40' W 122°13'0 0.0
2018-May-15 10:28N 47°40' W 122°13'0 0.0
2018-May-15 09:52N 47°40' W 122°13'0 0.0
2018-May-15 09:28N 47°40' W 122°13'0 0.0
2018-May-15 08:58N 47°40' W 122°13'0 0.0
2018-May-15 08:22N 47°40' W 122°13'0 0.0
2018-May-15 07:58N 47°40' W 122°13'0 0.0
2018-May-15 07:28N 47°40' W 122°13'0 0.0
2018-May-15 06:52N 47°40' W 122°13'0 0.0
2018-May-15 06:19N 47°40' W 122°13'0 0.0
2018-May-15 05:46N 47°40' W 122°13'0 0.0
2018-May-15 05:22N 47°40' W 122°13'0 0.0
2018-May-15 04:58N 47°40' W 122°13'0 0.0
2018-May-15 04:28N 47°40' W 122°13'0 0.0
2018-May-15 03:58N 47°40' W 122°13'0 0.0
2018-May-15 03:28N 47°40' W 122°13'0 0.0
2018-May-15 02:46N 47°40' W 122°13'0 0.0
2018-May-15 02:22N 47°40' W 122°13'0 0.0
2018-May-14 15:10N 47°40' W 122°13'0 0.0
2018-May-14 14:46N 47°40' W 122°13'0 0.0
2018-May-14 14:28N 47°40' W 122°13'0 0.0
2018-May-14 13:28N 47°40' W 122°13'0 0.0
2018-May-14 12:58N 47°40' W 122°13'0 0.0
2018-May-14 12:28N 47°40' W 122°13'0 0.0
2018-May-14 11:52N 47°40' W 122°13'0 0.0
2018-May-14 11:28N 47°40' W 122°13'0 0.0
2018-May-14 10:40N 47°40' W 122°13'0 0.0
2018-May-14 10:28N 47°40' W 122°13'0 0.0
2018-May-14 09:58N 47°40' W 122°13'0 0.0
2018-May-14 09:28N 47°40' W 122°13'0 0.0
2018-May-14 08:58N 47°40' W 122°13'0 0.0
2018-May-14 08:04N 47°40' W 122°13'0 0.0
2018-May-14 07:58N 47°40' W 122°13'0 0.0
2018-May-14 07:28N 47°40' W 122°13'0 0.0
2018-May-14 06:58N 47°40' W 122°13'0 0.0
2018-May-14 06:22N 47°40' W 122°13'0 0.0
2018-May-14 05:55N 47°40' W 122°13'0 0.0
2018-May-14 05:25N 47°40' W 122°13'0 0.0
2018-May-14 04:58N 47°40' W 122°13'0 0.0
2018-May-14 04:28N 47°40' W 122°13'0 0.0
2018-May-14 03:40N 47°40' W 122°13'0 0.0
2018-May-14 03:22N 47°40' W 122°13'0 0.0
2018-May-14 02:16N 47°40' W 122°13'0 0.0
2018-May-14 02:00N 47°40' W 122°13'2 3.6
2018-May-14 01:22N 47°40' W 122°16'2 4.7
2018-May-14 00:58N 47°39' W 122°18'2 3.7
2018-May-14 00:30N 47°38' W 122°20'2 4.2
2018-May-13 23:59N 47°39' W 122°17'4 7.3
2018-May-13 23:30N 47°40' W 122°13'0 0.5
2018-May-13 23:00N 47°40' W 122°13'0 0.0
2018-May-13 22:30N 47°40' W 122°13'2 3.5
2018-May-13 22:00N 47°39' W 122°14'2 4.0
2018-May-13 21:29N 47°37' W 122°15'3 6.5
2018-May-13 21:00N 47°40' W 122°13'1 0.6
2018-May-13 20:08N 47°40' W 122°13'0 0.0
2018-May-13 19:56N 47°40' W 122°13'0 0.0
2018-May-13 15:59N 47°40' W 122°13'0 0.0
2018-May-13 15:29N 47°40' W 122°13'0 0.0
2018-May-13 14:59N 47°40' W 122°13'0 0.0
2018-May-13 14:29N 47°40' W 122°13'0 0.0
2018-May-13 13:59N 47°40' W 122°13'0 0.0
2018-May-13 13:29N 47°40' W 122°13'0 0.0
2018-May-13 12:56N 47°40' W 122°13'0 0.0
2018-May-13 12:29N 47°40' W 122°13'0 0.0
2018-May-13 11:59N 47°40' W 122°13'0 0.0
2018-May-13 11:26N 47°40' W 122°13'0 0.0
2018-May-13 10:59N 47°40' W 122°13'0 0.0
2018-May-13 10:29N 47°40' W 122°13'0 0.0
2018-May-13 09:59N 47°40' W 122°13'0 0.0
2018-May-13 09:29N 47°40' W 122°13'0 0.0
2018-May-13 08:56N 47°40' W 122°13'0 0.0
2018-May-13 08:23N 47°40' W 122°13'0 0.0
2018-May-13 07:56N 47°40' W 122°13'0 0.0
2018-May-13 07:29N 47°40' W 122°13'0 0.0
2018-May-13 06:59N 47°40' W 122°13'0 0.0
2018-May-13 06:29N 47°40' W 122°13'0 0.0
2018-May-13 05:32N 47°40' W 122°13'0 0.0
2018-May-13 05:29N 47°40' W 122°13'0 0.0
2018-May-13 04:56N 47°40' W 122°13'0 0.0
2018-May-13 04:23N 47°40' W 122°13'0 0.0
2018-May-13 03:53N 47°40' W 122°13'0 0.0
2018-May-13 03:29N 47°40' W 122°13'0 0.0
2018-May-13 02:59N 47°40' W 122°13'0 0.0
2018-May-13 02:29N 47°40' W 122°13'0 0.0
2018-May-13 01:53N 47°40' W 122°13'0 0.0
2018-May-13 01:29N 47°40' W 122°13'0 0.0
2018-May-13 00:59N 47°40' W 122°13'1 3.1
2018-May-13 00:30N 47°40' W 122°14'3 6.9
2018-May-13 00:00N 47°39' W 122°19'2 4.2
2018-May-12 23:30N 47°40' W 122°23'0 0.0
2018-May-12 23:00N 47°40' W 122°23'0 0.5
2018-May-12 22:30N 47°39' W 122°22'0 0.2
2018-May-12 22:00N 47°39' W 122°22'0 0.4
2018-May-12 21:30N 47°40' W 122°23'0 0.0
2018-May-12 21:00N 47°40' W 122°23'0 0.2
2018-May-12 20:30N 47°40' W 122°23'0 0.2
2018-May-12 20:00N 47°40' W 122°23'0 0.1
2018-May-12 19:30N 47°40' W 122°22'0 0.2
2018-May-12 19:00N 47°39' W 122°22'0 0.4
2018-May-12 18:30N 47°40' W 122°23'0 0.0
2018-May-12 18:00N 47°40' W 122°23'0 0.0
2018-May-12 17:28N 47°40' W 122°23'0 0.0
2018-May-12 17:00N 47°40' W 122°23'1 1.3
2018-May-12 16:30N 47°39' W 122°22'3 6.2
2018-May-12 16:00N 47°39' W 122°17'3 7.0
2018-May-12 15:30N 47°40' W 122°13'  
Track history (hours):
 
Tides and Currents Weather Stations Pressure Air Temp Water Temp Dewpoint Dewpoint Depression Visibility Wind Speed Wind Dir Waves Ship Positions

Lady Mary

Owner: BLACKMAN, JOHN H, SEATTLE, WA. More information available from US FCC via Universal Licensing System and Coast Guard Vessel Documentation Center.

Last reported at 2018-May-20 23:05 UTC. Time now 2018-May-24 14:04 UTC.
Position N 47°40' W 122°13'.

Length 26 m; draft 2 m.

Type: Passenger vessel. MMSI: 367013060.

Date/timePositionNaut miles runAvg speedWind from/ knotsBaromVisibWave heightAir tempDewpointWater temp
2018-May-20 23:05N 47°40' W 122°13'0 0.0
2018-May-20 22:59N 47°40' W 122°13'0 0.0
2018-May-20 22:29N 47°40' W 122°13'0 1.0
2018-May-20 22:00N 47°40' W 122°13'4 7.0
2018-May-20 21:30N 47°36' W 122°14'2 4.7
2018-May-20 21:00N 47°39' W 122°14'2 4.2
2018-May-20 20:29N 47°40' W 122°13'0 0.0
2018-May-20 04:58N 47°40' W 122°13'1 3.0
2018-May-20 04:30N 47°39' W 122°14'2 4.2
2018-May-20 04:00N 47°39' W 122°17'2 4.1
2018-May-20 03:30N 47°39' W 122°20'0 0.4
2018-May-20 03:00N 47°39' W 122°20'3 5.2
2018-May-20 02:29N 47°39' W 122°16'3 5.4
2018-May-20 02:00N 47°40' W 122°13'0 0.4
2018-May-20 01:29N 47°40' W 122°13'0 0.0
2018-May-20 00:59N 47°40' W 122°13'0 0.0
2018-May-20 00:28N 47°40' W 122°13'0 0.0
2018-May-20 00:00N 47°40' W 122°13'0 0.0
2018-May-19 23:30N 47°40' W 122°13'0 0.0
2018-May-19 23:00N 47°40' W 122°13'0 0.0
2018-May-19 22:29N 47°40' W 122°13'0 0.0
2018-May-19 22:00N 47°40' W 122°13'3 6.2
2018-May-19 21:30N 47°38' W 122°15'1 1.6
2018-May-19 21:00N 47°38' W 122°15'2 4.8
2018-May-19 20:30N 47°40' W 122°13'0 0.0
2018-May-19 19:57N 47°40' W 122°13'0 0.0
2018-May-19 00:26N 47°40' W 122°13'0 0.0
2018-May-19 00:00N 47°40' W 122°13'0 0.0
2018-May-18 23:30N 47°40' W 122°13'2 4.0
2018-May-18 23:00N 47°39' W 122°14'0 0.1
2018-May-18 22:31N 47°39' W 122°14'2 3.9
2018-May-18 22:00N 47°40' W 122°13'0 0.0
2018-May-18 21:30N 47°40' W 122°13'0 0.0
2018-May-18 20:59N 47°40' W 122°13'0 0.0
2018-May-18 20:30N 47°40' W 122°13'0 0.0
2018-May-18 20:00N 47°40' W 122°13'2 4.3
2018-May-18 19:30N 47°39' W 122°15'3 6.3
2018-May-18 19:01N 47°39' W 122°20'1 1.2
2018-May-18 18:30N 47°39' W 122°21'0 0.0
2018-May-18 18:01N 47°39' W 122°21'2 3.8
2018-May-18 17:30N 47°39' W 122°18'4 7.7
2018-May-18 17:00N 47°40' W 122°13'0 0.0
2018-May-18 02:33N 47°40' W 122°13'0 0.0
2018-May-18 02:30N 47°40' W 122°13'3 6.0
2018-May-18 02:00N 47°39' W 122°16'1 2.6
2018-May-18 01:30N 47°39' W 122°15'2 4.7
2018-May-18 01:00N 47°40' W 122°13'0 0.0
2018-May-18 00:30N 47°40' W 122°13'0 0.0
2018-May-17 23:37N 47°40' W 122°13'0 0.0
2018-May-16 05:47N 47°40' W 122°13'0 0.0
2018-May-16 05:30N 47°40' W 122°13'3 6.2
2018-May-16 05:00N 47°39' W 122°16'3 5.8
2018-May-16 04:30N 47°39' W 122°21'0 0.0
2018-May-16 04:00N 47°39' W 122°21'1 1.9
2018-May-16 03:27N 47°38' W 122°20'0 0.0
2018-May-16 03:00N 47°38' W 122°20'1 2.0
2018-May-16 02:30N 47°39' W 122°20'2 3.4
2018-May-16 01:58N 47°39' W 122°18'3 5.9
2018-May-16 01:30N 47°37' W 122°15'2 4.8
2018-May-16 01:00N 47°39' W 122°17'2 4.8
2018-May-16 00:30N 47°38' W 122°20'0 0.1
2018-May-16 00:00N 47°38' W 122°20'0 0.0
2018-May-15 23:30N 47°38' W 122°20'1 2.1
2018-May-15 23:00N 47°39' W 122°20'3 6.5
2018-May-15 22:30N 47°39' W 122°15'2 3.8
2018-May-15 21:58N 47°40' W 122°13'0 0.0
2018-May-15 18:37N 47°40' W 122°13'0 0.0
2018-May-15 17:40N 47°40' W 122°13'0 0.0
2018-May-15 17:28N 47°40' W 122°13'0 0.0
2018-May-15 16:55N 47°40' W 122°13'0 0.0
2018-May-15 16:28N 47°40' W 122°13'0 0.0
2018-May-15 15:58N 47°40' W 122°13'0 0.0
2018-May-15 15:13N 47°40' W 122°13'0 0.0
2018-May-15 14:58N 47°40' W 122°13'0 0.0
2018-May-15 14:28N 47°40' W 122°13'0 0.0
2018-May-15 14:01N 47°40' W 122°13'0 0.0
2018-May-15 13:28N 47°40' W 122°13'0 0.0
2018-May-15 12:58N 47°40' W 122°13'0 0.0
2018-May-15 11:52N 47°40' W 122°13'0 0.0
2018-May-15 11:28N 47°40' W 122°13'0 0.0
2018-May-15 10:58N 47°40' W 122°13'0 0.0
2018-May-15 10:28N 47°40' W 122°13'0 0.0
2018-May-15 09:52N 47°40' W 122°13'0 0.0
2018-May-15 09:28N 47°40' W 122°13'0 0.0
2018-May-15 08:58N 47°40' W 122°13'0 0.0
2018-May-15 08:22N 47°40' W 122°13'0 0.0
2018-May-15 07:58N 47°40' W 122°13'0 0.0
2018-May-15 07:28N 47°40' W 122°13'0 0.0
2018-May-15 06:52N 47°40' W 122°13'0 0.0
2018-May-15 06:19N 47°40' W 122°13'0 0.0
2018-May-15 05:46N 47°40' W 122°13'0 0.0
2018-May-15 05:22N 47°40' W 122°13'0 0.0
2018-May-15 04:58N 47°40' W 122°13'0 0.0
2018-May-15 04:28N 47°40' W 122°13'0 0.0
2018-May-15 03:58N 47°40' W 122°13'0 0.0
2018-May-15 03:28N 47°40' W 122°13'0 0.0
2018-May-15 02:46N 47°40' W 122°13'0 0.0
2018-May-15 02:22N 47°40' W 122°13'0 0.0
2018-May-14 15:10N 47°40' W 122°13'0 0.0
2018-May-14 14:46N 47°40' W 122°13'0 0.0
2018-May-14 14:28N 47°40' W 122°13'0 0.0
2018-May-14 13:28N 47°40' W 122°13'0 0.0
2018-May-14 12:58N 47°40' W 122°13'0 0.0
2018-May-14 12:28N 47°40' W 122°13'0 0.0
2018-May-14 11:52N 47°40' W 122°13'0 0.0
2018-May-14 11:28N 47°40' W 122°13'0 0.0
2018-May-14 10:40N 47°40' W 122°13'0 0.0
2018-May-14 10:28N 47°40' W 122°13'0 0.0
2018-May-14 09:58N 47°40' W 122°13'0 0.0
2018-May-14 09:28N 47°40' W 122°13'0 0.0
2018-May-14 08:58N 47°40' W 122°13'0 0.0
2018-May-14 08:04N 47°40' W 122°13'0 0.0
2018-May-14 07:58N 47°40' W 122°13'0 0.0
2018-May-14 07:28N 47°40' W 122°13'0 0.0
2018-May-14 06:58N 47°40' W 122°13'0 0.0
2018-May-14 06:22N 47°40' W 122°13'0 0.0
2018-May-14 05:55N 47°40' W 122°13'0 0.0
2018-May-14 05:25N 47°40' W 122°13'0 0.0
2018-May-14 04:58N 47°40' W 122°13'0 0.0
2018-May-14 04:28N 47°40' W 122°13'0 0.0
2018-May-14 03:40N 47°40' W 122°13'0 0.0
2018-May-14 03:22N 47°40' W 122°13'0 0.0
2018-May-14 02:16N 47°40' W 122°13'0 0.0
2018-May-14 02:00N 47°40' W 122°13'2 3.6
2018-May-14 01:22N 47°40' W 122°16'2 4.7
2018-May-14 00:58N 47°39' W 122°18'2 3.7
2018-May-14 00:30N 47°38' W 122°20'2 4.2
2018-May-13 23:59N 47°39' W 122°17'4 7.3
2018-May-13 23:30N 47°40' W 122°13'0 0.5
2018-May-13 23:00N 47°40' W 122°13'0 0.0
2018-May-13 22:30N 47°40' W 122°13'2 3.5
2018-May-13 22:00N 47°39' W 122°14'2 4.0
2018-May-13 21:29N 47°37' W 122°15'3 6.5
2018-May-13 21:00N 47°40' W 122°13'1 0.6
2018-May-13 20:08N 47°40' W 122°13'0 0.0
2018-May-13 19:56N 47°40' W 122°13'0 0.0
2018-May-13 15:59N 47°40' W 122°13'0 0.0
2018-May-13 15:29N 47°40' W 122°13'0 0.0
2018-May-13 14:59N 47°40' W 122°13'0 0.0
2018-May-13 14:29N 47°40' W 122°13'0 0.0
2018-May-13 13:59N 47°40' W 122°13'0 0.0
2018-May-13 13:29N 47°40' W 122°13'0 0.0
2018-May-13 12:56N 47°40' W 122°13'0 0.0
2018-May-13 12:29N 47°40' W 122°13'0 0.0
2018-May-13 11:59N 47°40' W 122°13'0 0.0
2018-May-13 11:26N 47°40' W 122°13'0 0.0
2018-May-13 10:59N 47°40' W 122°13'0 0.0
2018-May-13 10:29N 47°40' W 122°13'0 0.0
2018-May-13 09:59N 47°40' W 122°13'0 0.0
2018-May-13 09:29N 47°40' W 122°13'0 0.0
2018-May-13 08:56N 47°40' W 122°13'0 0.0
2018-May-13 08:23N 47°40' W 122°13'0 0.0
2018-May-13 07:56N 47°40' W 122°13'0 0.0
2018-May-13 07:29N 47°40' W 122°13'0 0.0
2018-May-13 06:59N 47°40' W 122°13'0 0.0
2018-May-13 06:29N 47°40' W 122°13'0 0.0
2018-May-13 05:32N 47°40' W 122°13'0 0.0
2018-May-13 05:29N 47°40' W 122°13'0 0.0
2018-May-13 04:56N 47°40' W 122°13'0 0.0
2018-May-13 04:23N 47°40' W 122°13'0 0.0
2018-May-13 03:53N 47°40' W 122°13'0 0.0
2018-May-13 03:29N 47°40' W 122°13'0 0.0
2018-May-13 02:59N 47°40' W 122°13'0 0.0
2018-May-13 02:29N 47°40' W 122°13'0 0.0
2018-May-13 01:53N 47°40' W 122°13'0 0.0
2018-May-13 01:29N 47°40' W 122°13'0 0.0
2018-May-13 00:59N 47°40' W 122°13'1 3.1
2018-May-13 00:30N 47°40' W 122°14'3 6.9
2018-May-13 00:00N 47°39' W 122°19'2 4.2
2018-May-12 23:30N 47°40' W 122°23'0 0.0
2018-May-12 23:00N 47°40' W 122°23'0 0.5
2018-May-12 22:30N 47°39' W 122°22'0 0.2
2018-May-12 22:00N 47°39' W 122°22'0 0.4
2018-May-12 21:30N 47°40' W 122°23'0 0.0
2018-May-12 21:00N 47°40' W 122°23'0 0.2
2018-May-12 20:30N 47°40' W 122°23'0 0.2
2018-May-12 20:00N 47°40' W 122°23'0 0.1
2018-May-12 19:30N 47°40' W 122°22'0 0.2
2018-May-12 19:00N 47°39' W 122°22'0 0.4
2018-May-12 18:30N 47°40' W 122°23'0 0.0
2018-May-12 18:00N 47°40' W 122°23'0 0.0
2018-May-12 17:28N 47°40' W 122°23'0 0.0
2018-May-12 17:00N 47°40' W 122°23'1 1.3
2018-May-12 16:30N 47°39' W 122°22'3 6.2
2018-May-12 16:00N 47°39' W 122°17'3 7.0
2018-May-12 15:30N 47°40' W 122°13'  

Dump ship's entire track history